Time;durP1;ratioP1;P1;durP2;ratioP2;P2;SDS_P1;SDS_P2;PMS_P1;PMS_P2;Temp;Humidity;BMP_temperature;BMP_pressure;BME280_temperature;BME280_humidity;BME280_pressure;Samples;Min_cycle;Max_cycle;Signal;HPM_P1;HPM_P2
2023/11/22 00:04:47;;;;;;;7.17;6.20;;;9.00;93.40;;;;;;10373021;28;20192;-65
2023/11/22 00:09:52;;;;;;;6.87;6.17;;;9.00;93.40;;;;;;10369453;28;20275;-65
2023/11/22 00:14:56;;;;;;;6.63;5.93;;;9.00;93.30;;;;;;10375613;28;20224;-65
2023/11/22 00:20:05;;;;;;;6.53;5.93;;;9.00;93.20;;;;;;10366113;28;20216;-66
2023/11/22 00:25:09;;;;;;;6.83;6.20;;;9.00;93.10;;;;;;10374002;28;20247;-65
2023/11/22 00:30:17;;;;;;;7.37;6.03;;;8.90;92.90;;;;;;10370899;28;20248;-66
2023/11/22 00:35:23;;;;;;;7.20;6.40;;;8.90;93.10;;;;;;10368706;28;20695;-63
2023/11/22 00:40:26;;;;;;;8.47;6.67;;;8.90;93.20;;;;;;10369830;28;20684;-64
2023/11/22 00:45:30;;;;;;;7.57;6.77;;;8.90;93.00;;;;;;10367901;28;20668;-65
2023/11/22 00:50:35;;;;;;;7.20;6.50;;;8.90;93.00;;;;;;10363356;28;20232;-64
2023/11/22 00:55:39;;;;;;;7.33;6.53;;;8.80;93.00;;;;;;10362864;28;20299;-64
2023/11/22 01:00:42;;;;;;;8.70;6.80;;;8.90;93.00;;;;;;10363089;28;20248;-65
2023/11/22 01:05:48;;;;;;;8.00;7.20;;;8.80;93.00;;;;;;10367143;28;20197;-64
2023/11/22 01:10:51;;;;;;;9.40;7.47;;;8.80;92.90;;;;;;10373875;28;20315;-64
2023/11/22 01:15:55;;;;;;;7.80;6.93;;;8.70;92.90;;;;;;10370587;28;20270;-64
2023/11/22 01:21:00;;;;;;;8.20;7.40;;;8.70;93.10;;;;;;10376131;28;20216;-64
2023/11/22 01:26:05;;;;;;;8.27;7.43;;;8.70;92.90;;;;;;10377371;28;20231;-64
2023/11/22 01:31:08;;;;;;;9.60;7.90;;;8.70;93.00;;;;;;10374061;28;20255;-64
2023/11/22 01:36:15;;;;;;;10.10;8.00;;;8.60;93.10;;;;;;10377027;28;20221;-64
2023/11/22 01:41:19;;;;;;;8.73;7.17;;;8.50;93.00;;;;;;10377082;28;20567;-64
2023/11/22 01:46:25;;;;;;;8.93;7.93;;;8.50;92.90;;;;;;10379377;28;20197;-64
2023/11/22 01:56:40;;;;;;;9.07;8.07;;;8.50;92.70;;;;;;10366525;28;20255;-66
2023/11/22 02:01:44;;;;;;;10.47;9.23;;;8.50;92.80;;;;;;10350701;28;20225;-66
2023/11/22 02:06:48;;;;;;;8.80;7.90;;;8.40;92.60;;;;;;10338154;28;20201;-67
2023/11/22 02:11:53;;;;;;;10.87;8.60;;;8.40;92.50;;;;;;10334485;28;20221;-65
2023/11/22 02:16:58;;;;;;;9.47;8.23;;;8.40;92.60;;;;;;10346851;28;20240;-66
2023/11/22 02:22:02;;;;;;;10.80;8.17;;;8.30;92.50;;;;;;10330532;28;20276;-65
2023/11/22 02:27:07;;;;;;;9.53;8.30;;;8.30;92.40;;;;;;10341929;28;20202;-65
2023/11/22 02:32:10;;;;;;;10.10;8.60;;;8.30;92.30;;;;;;10330295;28;20248;-67
2023/11/22 02:37:14;;;;;;;10.23;8.77;;;8.20;92.30;;;;;;10343652;28;20260;-66
2023/11/22 02:42:19;;;;;;;10.53;9.37;;;8.20;92.30;;;;;;10337296;28;20229;-66
2023/11/22 02:47:23;;;;;;;10.67;9.57;;;8.20;92.40;;;;;;10332616;28;20256;-67
2023/11/22 02:52:27;;;;;;;12.30;9.87;;;8.20;92.30;;;;;;10327004;28;20299;-67
2023/11/22 02:57:32;;;;;;;11.23;10.03;;;8.20;92.40;;;;;;10330153;28;20275;-67
2023/11/22 03:02:37;;;;;;;10.43;9.40;;;8.20;92.40;;;;;;10326711;28;20221;-67
2023/11/22 03:07:41;;;;;;;11.10;9.30;;;8.10;92.40;;;;;;10323995;28;20197;-66
2023/11/22 03:12:46;;;;;;;14.93;9.23;;;8.10;92.60;;;;;;10323280;28;20226;-66
2023/11/22 03:17:50;;;;;;;10.73;9.47;;;8.10;92.30;;;;;;10331637;28;20242;-66
2023/11/22 03:22:53;;;;;;;9.23;8.20;;;8.00;92.10;;;;;;10334838;28;20225;-67
2023/11/22 03:27:58;;;;;;;9.50;8.50;;;7.90;92.00;;;;;;10334944;28;20283;-67
2023/11/22 03:33:02;;;;;;;9.60;8.40;;;7.80;92.20;;;;;;10334665;28;20224;-67
2023/11/22 03:38:08;;;;;;;11.83;9.13;;;7.70;92.00;;;;;;10338307;28;20221;-67
2023/11/22 03:43:13;;;;;;;12.13;9.83;;;7.70;91.90;;;;;;10344444;28;20232;-67
2023/11/22 03:48:17;;;;;;;10.87;9.70;;;7.70;92.00;;;;;;10330081;28;20291;-67
2023/11/22 03:53:21;;;;;;;10.23;9.20;;;7.60;91.80;;;;;;10328706;28;20261;-67
2023/11/22 03:58:26;;;;;;;9.60;8.60;;;7.60;91.70;;;;;;10336590;28;20275;-67
2023/11/22 04:03:30;;;;;;;11.23;9.10;;;7.50;92.10;;;;;;10331367;28;20259;-66
2023/11/22 04:08:34;;;;;;;10.50;8.70;;;7.50;91.80;;;;;;10317626;28;20248;-66
2023/11/22 04:13:39;;;;;;;12.97;8.47;;;7.50;92.10;;;;;;10315482;28;20282;-66
2023/11/22 04:18:44;;;;;;;9.80;8.03;;;7.40;92.90;;;;;;10331367;28;20252;-67
2023/11/22 04:23:48;;;;;;;9.80;8.23;;;7.40;91.90;;;;;;10328487;28;20588;-66
2023/11/22 04:28:53;;;;;;;10.37;8.33;;;7.40;91.70;;;;;;10324934;28;20233;-66
2023/11/22 04:33:57;;;;;;;9.27;8.30;;;7.30;91.60;;;;;;10327677;28;20224;-67
2023/11/22 04:39:01;;;;;;;11.53;8.63;;;7.30;91.70;;;;;;10322023;28;20237;-66
2023/11/22 04:44:06;;;;;;;11.43;8.80;;;7.20;91.70;;;;;;10315315;28;20226;-66
2023/11/22 04:49:10;;;;;;;11.30;8.40;;;7.20;91.70;;;;;;10324240;28;20251;-65
2023/11/22 04:54:14;;;;;;;10.10;8.30;;;7.20;91.60;;;;;;10352610;28;20675;-64
2023/11/22 04:59:19;;;;;;;12.10;8.57;;;7.20;91.60;;;;;;10369981;28;20224;-65
2023/11/22 05:04:22;;;;;;;11.67;7.97;;;7.10;91.60;;;;;;10366664;28;20213;-65
2023/11/22 05:09:26;;;;;;;10.80;8.67;;;7.10;91.50;;;;;;10330046;28;20221;-64
2023/11/22 05:14:31;;;;;;;10.57;8.60;;;7.10;91.80;;;;;;10329985;28;20204;-64
2023/11/22 05:19:35;;;;;;;8.93;8.03;;;7.00;91.40;;;;;;10352524;28;20335;-65
2023/11/22 05:24:40;;;;;;;12.10;8.63;;;7.00;91.30;;;;;;10358472;28;20258;-65
2023/11/22 05:29:46;;;;;;;9.90;8.20;;;6.90;91.30;;;;;;10320927;28;20217;-63
2023/11/22 05:34:57;;;;;;;10.03;8.63;;;6.90;91.20;;;;;;10341467;28;20614;-65
2023/11/22 05:40:01;;;;;;;10.10;8.60;;;6.90;91.20;;;;;;10349322;28;20237;-64
2023/11/22 05:45:08;;;;;;;11.33;7.87;;;6.90;91.20;;;;;;10347716;28;20201;-64
2023/11/22 05:50:11;;;;;;;9.23;8.03;;;6.80;91.00;;;;;;10355103;28;20271;-65
2023/11/22 05:55:15;;;;;;;9.10;7.67;;;6.80;90.90;;;;;;10337111;28;20213;-64
2023/11/22 06:00:21;;;;;;;8.07;6.80;;;6.80;90.90;;;;;;10337100;28;20237;-64
2023/11/22 06:05:25;;;;;;;8.73;7.20;;;6.70;90.80;;;;;;10336920;28;20211;-65
2023/11/22 06:10:28;;;;;;;8.80;7.30;;;6.70;90.80;;;;;;10336457;28;20780;-64
2023/11/22 06:15:33;;;;;;;10.13;7.03;;;6.60;91.10;;;;;;10342926;28;20207;-64
2023/11/22 06:20:37;;;;;;;10.30;7.37;;;6.60;90.80;;;;;;10354330;28;20241;-63
2023/11/22 06:25:41;;;;;;;9.57;7.43;;;6.60;90.60;;;;;;10330519;28;20262;-63
2023/11/22 06:30:46;;;;;;;9.30;7.93;;;6.50;90.50;;;;;;10335977;28;20228;-64
2023/11/22 06:35:50;;;;;;;9.30;7.53;;;6.50;90.30;;;;;;10335736;28;20258;-62
2023/11/22 06:40:54;;;;;;;8.70;7.20;;;6.40;90.30;;;;;;10335320;28;20227;-63
2023/11/22 06:45:59;;;;;;;8.57;7.10;;;6.40;90.30;;;;;;10362930;28;20667;-63
2023/11/22 06:51:03;;;;;;;8.57;6.63;;;6.30;90.20;;;;;;10375165;28;20223;-63
2023/11/22 06:56:06;;;;;;;9.13;7.00;;;6.20;90.10;;;;;;10374643;28;20695;-64
2023/11/22 07:01:12;;;;;;;9.50;6.17;;;6.20;90.10;;;;;;10340371;28;20241;-64
2023/11/22 07:06:19;;;;;;;9.53;6.57;;;6.10;90.10;;;;;;10335179;28;20239;-64
2023/11/22 07:11:24;;;;;;;8.70;6.17;;;6.10;90.00;;;;;;10302252;28;20229;-64
2023/11/22 07:16:29;;;;;;;9.57;6.60;;;6.00;90.00;;;;;;10334020;28;20559;-63
2023/11/22 07:21:33;;;;;;;9.00;7.03;;;6.00;90.10;;;;;;10333530;28;20231;-64
2023/11/22 07:26:37;;;;;;;11.10;10.00;;;6.00;90.10;;;;;;10318898;28;20445;-61
2023/11/22 07:31:42;;;;;;;9.50;7.90;;;6.20;89.50;;;;;;10334720;28;20216;-62
2023/11/22 07:36:47;;;;;;;9.93;7.63;;;6.10;89.40;;;;;;10342196;28;20200;-62
2023/11/22 07:41:51;;;;;;;10.67;8.20;;;6.10;89.50;;;;;;10334387;28;20301;-63
2023/11/22 07:46:56;;;;;;;9.67;7.73;;;6.00;90.10;;;;;;10332542;28;20257;-64
2023/11/22 07:52:00;;;;;;;11.57;8.73;;;6.00;89.70;;;;;;10334585;28;20708;-64
2023/11/22 07:57:05;;;;;;;9.40;8.10;;;5.90;89.80;;;;;;10327803;28;20266;-63
2023/11/22 08:02:11;;;;;;;9.00;7.80;;;5.90;89.90;;;;;;10332943;28;20301;-63
2023/11/22 08:07:16;;;;;;;12.97;7.27;;;5.90;90.00;;;;;;10329059;28;20203;-63
2023/11/22 08:12:21;;;;;;;9.73;7.40;;;6.00;90.00;;;;;;10323570;28;20273;-63
2023/11/22 08:17:27;;;;;;;10.07;8.20;;;6.00;90.00;;;;;;10335767;28;20207;-62
2023/11/22 08:22:32;;;;;;;10.00;6.77;;;6.00;90.20;;;;;;10335574;28;20227;-64
2023/11/22 08:27:36;;;;;;;8.97;7.53;;;6.00;90.00;;;;;;10336523;28;20652;-63
2023/11/22 08:32:42;;;;;;;9.00;7.10;;;6.00;90.30;;;;;;10342320;28;20271;-64
2023/11/22 08:37:47;;;;;;;8.17;6.77;;;6.10;90.00;;;;;;10339028;28;20265;-62
2023/11/22 08:42:51;;;;;;;9.37;6.40;;;6.10;89.70;;;;;;10341798;28;20284;-62
2023/11/22 08:47:56;;;;;;;8.87;6.63;;;6.20;90.00;;;;;;10335569;28;20247;-63
2023/11/22 08:53:00;;;;;;;10.17;7.20;;;6.20;90.00;;;;;;10331356;28;20240;-63
2023/11/22 08:58:05;;;;;;;11.27;6.37;;;6.30;90.00;;;;;;10341041;28;20200;-63
2023/11/22 09:03:12;;;;;;;8.67;6.53;;;6.30;89.90;;;;;;10334984;28;20290;-64
2023/11/22 09:08:16;;;;;;;9.30;6.10;;;6.40;90.00;;;;;;10339769;28;20200;-64
2023/11/22 09:13:29;;;;;;;7.43;6.17;;;6.50;88.60;;;;;;10316682;28;20294;-64
2023/11/22 09:18:34;;;;;;;8.03;6.47;;;6.60;89.00;;;;;;10324670;28;20224;-64
2023/11/22 09:23:38;;;;;;;6.93;5.23;;;6.70;88.90;;;;;;10318686;28;20279;-64
2023/11/22 09:28:43;;;;;;;7.93;5.90;;;6.90;88.20;;;;;;10344444;28;20197;-64
2023/11/22 09:33:48;;;;;;;7.83;5.47;;;7.00;87.90;;;;;;10345713;28;20599;-63
2023/11/22 09:38:51;;;;;;;6.27;5.03;;;7.10;86.90;;;;;;10337091;28;20220;-63
2023/11/22 09:43:55;;;;;;;6.87;5.17;;;7.20;86.80;;;;;;10334126;28;20278;-64
2023/11/22 09:49:03;;;;;;;7.40;5.67;;;7.30;85.70;;;;;;10345983;28;20209;-63
2023/11/22 09:54:11;;;;;;;5.07;4.27;;;7.40;85.40;;;;;;10336059;28;20247;-64
2023/11/22 09:59:16;;;;;;;6.53;3.97;;;7.50;85.20;;;;;;10320337;28;20638;-64
2023/11/22 10:04:21;;;;;;;7.77;4.10;;;7.60;83.90;;;;;;10347322;28;20232;-64
2023/11/22 10:09:27;;;;;;;4.20;3.30;;;7.70;83.00;;;;;;10320444;28;20703;-63
2023/11/22 10:14:30;;;;;;;5.03;3.60;;;7.70;85.00;;;;;;10367883;28;20212;-63
2023/11/22 10:19:35;;;;;;;3.30;2.93;;;7.80;82.70;;;;;;10352353;28;20306;-62
2023/11/22 10:24:40;;;;;;;4.80;3.13;;;7.90;81.30;;;;;;10333395;28;20256;-63
2023/11/22 10:29:47;;;;;;;5.30;3.20;;;8.00;81.00;;;;;;10343940;28;20591;-63
2023/11/22 10:34:52;;;;;;;4.73;3.87;;;8.00;83.60;;;;;;10343348;28;20498;-64
2023/11/22 10:39:55;;;;;;;6.30;3.87;;;8.00;80.00;;;;;;10335724;28;20596;-62
2023/11/22 10:45:03;;;;;;;5.20;3.60;;;8.10;80.50;;;;;;10341290;28;20209;-64
2023/11/22 10:50:10;;;;;;;4.07;3.30;;;8.20;79.80;;;;;;10343200;28;20604;-62
2023/11/22 10:55:18;;;;;;;4.93;3.87;;;8.20;79.70;;;;;;10318948;28;20217;-63
2023/11/22 11:00:23;;;;;;;4.17;3.60;;;8.30;78.60;;;;;;10338350;28;20700;-63
2023/11/22 11:05:31;;;;;;;5.00;3.43;;;8.40;78.60;;;;;;10353579;28;20201;-63
2023/11/22 11:10:35;;;;;;;4.83;3.30;;;8.40;77.40;;;;;;10356369;28;20366;-63
2023/11/22 11:15:39;;;;;;;3.83;3.30;;;8.40;77.10;;;;;;10327461;28;20737;-64
2023/11/22 11:20:51;;;;;;;4.93;3.33;;;8.40;76.00;;;;;;10317470;28;20623;-63
2023/11/22 11:25:56;;;;;;;3.90;3.43;;;8.50;76.80;;;;;;10330734;28;20235;-63
2023/11/22 11:30:59;;;;;;;3.73;3.30;;;8.50;76.20;;;;;;10353875;28;20707;-63
2023/11/22 11:36:06;;;;;;;4.47;3.63;;;8.50;75.80;;;;;;10313618;28;20205;-64
2023/11/22 11:41:11;;;;;;;5.07;3.53;;;8.60;75.60;;;;;;10343382;28;20720;-64
2023/11/22 11:46:15;;;;;;;6.00;3.97;;;8.60;75.20;;;;;;10335952;28;20318;-64
2023/11/22 11:51:22;;;;;;;4.27;3.87;;;8.70;75.70;;;;;;10318672;28;20217;-65
2023/11/22 11:56:28;;;;;;;5.60;4.10;;;8.70;74.70;;;;;;10334399;28;20210;-65
2023/11/22 12:01:33;;;;;;;4.87;3.90;;;8.80;75.90;;;;;;10341646;28;20225;-63
2023/11/22 12:06:39;;;;;;;4.47;3.97;;;8.70;73.60;;;;;;10352759;28;20555;-63
2023/11/22 12:11:46;;;;;;;5.60;4.40;;;8.60;74.00;;;;;;10334540;28;20229;-64
2023/11/22 12:16:54;;;;;;;7.77;3.80;;;8.60;74.70;;;;;;10338307;28;20608;-69
2023/11/22 12:21:59;;;;;;;4.27;3.03;;;8.70;74.00;;;;;;10338238;28;20225;-64
2023/11/22 12:27:03;;;;;;;4.57;3.40;;;8.90;73.90;;;;;;10332165;28;20209;-62
2023/11/22 12:32:07;;;;;;;4.53;3.10;;;9.10;73.70;;;;;;10333389;28;20279;-62
2023/11/22 12:37:15;;;;;;;4.43;2.40;;;9.30;72.00;;;;;;10336489;28;20270;-63
2023/11/22 12:42:20;;;;;;;2.67;2.10;;;9.40;71.80;;;;;;10334093;28;20225;-63
2023/11/22 12:47:35;;;;;;;4.13;2.03;;;9.60;71.00;;;;;;10326050;28;20212;-63
2023/11/22 12:52:40;;;;;;;2.50;1.87;;;9.70;70.20;;;;;;10315607;28;20237;-64
2023/11/22 12:57:45;;;;;;;2.80;1.93;;;9.80;70.20;;;;;;10332469;28;20591;-65
2023/11/22 13:02:49;;;;;;;3.87;2.60;;;9.80;71.70;;;;;;10326333;28;20617;-65
2023/11/22 13:08:07;;;;;;;2.93;2.63;;;9.80;69.30;;;;;;10324145;28;20205;-64
2023/11/22 13:13:10;;;;;;;5.07;2.97;;;9.70;69.70;;;;;;10333937;28;20222;-65
2023/11/22 13:18:14;;;;;;;2.70;2.50;;;9.50;67.00;;;;;;10327485;28;20209;-68
2023/11/22 13:23:19;;;;;;;3.17;2.30;;;9.40;67.20;;;;;;10326098;28;20221;-65
2023/11/22 13:28:24;;;;;;;2.87;2.13;;;9.30;67.80;;;;;;10320770;28;20265;-65
2023/11/22 13:33:28;;;;;;;3.57;2.87;;;9.20;67.80;;;;;;10330217;28;20217;-65
2023/11/22 13:38:33;;;;;;;3.17;2.77;;;9.10;67.90;;;;;;10318781;28;20202;-65
2023/11/22 13:43:37;;;;;;;4.07;2.90;;;9.10;68.50;;;;;;10340347;28;20251;-64
2023/11/22 13:48:41;;;;;;;4.27;3.10;;;9.10;68.30;;;;;;10326440;28;20236;-66
2023/11/22 13:53:51;;;;;;;5.77;3.23;;;9.00;69.30;;;;;;10336476;28;20285;-65
2023/11/22 13:58:55;;;;;;;3.40;2.80;;;9.00;68.80;;;;;;10317523;28;20204;-65
2023/11/22 14:03:58;;;;;;;6.57;3.33;;;9.00;67.80;;;;;;10331280;28;20276;-65
2023/11/22 14:09:04;;;;;;;6.60;4.70;;;9.00;67.70;;;;;;10320935;28;20213;-64
2023/11/22 14:14:09;;;;;;;43.93;19.57;;;9.00;68.00;;;;;;10340767;28;20570;-65
2023/11/22 14:19:14;;;;;;;38.63;17.43;;;9.00;67.70;;;;;;10329974;28;20260;-65
2023/11/22 14:24:19;;;;;;;24.73;11.23;;;9.00;67.90;;;;;;10342631;28;20221;-64
2023/11/22 14:29:22;;;;;;;47.50;19.50;;;9.00;67.90;;;;;;10329371;28;20259;-63
2023/11/22 14:34:26;;;;;;;17.37;8.00;;;9.00;67.60;;;;;;10335577;28;20216;-64
2023/11/22 14:39:33;;;;;;;16.67;7.27;;;8.90;68.70;;;;;;10336941;28;20267;-66
2023/11/22 14:44:37;;;;;;;8.73;5.10;;;8.90;68.70;;;;;;10329111;28;20271;-64
2023/11/22 14:49:40;;;;;;;68.97;28.30;;;8.90;68.30;;;;;;10336045;28;20216;-64
2023/11/22 14:54:52;;;;;;;9.50;6.27;;;8.90;68.30;;;;;;10324180;28;20206;-64
2023/11/22 14:59:56;;;;;;;4.27;3.53;;;8.90;67.90;;;;;;10325980;28;20282;-64
2023/11/22 15:05:01;;;;;;;6.27;4.87;;;8.80;68.50;;;;;;10331371;28;20226;-65
2023/11/22 15:10:06;;;;;;;14.70;9.73;;;8.80;68.40;;;;;;10325858;28;20748;-65
2023/11/22 15:15:12;;;;;;;8.47;6.53;;;8.80;68.50;;;;;;10328690;28;20198;-64
2023/11/22 15:20:15;;;;;;;5.23;3.70;;;8.80;68.50;;;;;;10330591;28;20225;-65
2023/11/22 15:25:21;;;;;;;4.97;3.47;;;8.70;69.30;;;;;;10339586;28;20245;-65
2023/11/22 15:30:24;;;;;;;10.57;3.80;;;8.70;68.20;;;;;;10340915;28;20272;-64
2023/11/22 15:35:28;;;;;;;5.37;3.80;;;8.70;68.70;;;;;;10331005;28;20206;-64
2023/11/22 15:40:33;;;;;;;3.13;2.83;;;8.70;67.20;;;;;;10339445;28;20248;-65
2023/11/22 15:45:37;;;;;;;5.53;3.00;;;8.70;69.80;;;;;;10328806;28;20201;-64
2023/11/22 15:50:41;;;;;;;3.50;2.13;;;8.60;68.20;;;;;;10331233;28;20641;-64
2023/11/22 15:55:46;;;;;;;4.90;2.97;;;8.60;67.20;;;;;;10337692;28;20213;-64
2023/11/22 16:00:50;;;;;;;5.07;2.73;;;8.60;68.90;;;;;;10333179;28;20749;-65
2023/11/22 16:05:54;;;;;;;3.77;2.63;;;8.60;68.30;;;;;;10334272;28;20209;-64
2023/11/22 16:10:59;;;;;;;5.00;2.80;;;8.60;68.60;;;;;;10327176;28;20229;-65
2023/11/22 16:16:03;;;;;;;4.47;2.93;;;8.60;67.30;;;;;;10319000;28;20256;-64
2023/11/22 16:21:07;;;;;;;4.73;3.80;;;8.60;68.80;;;;;;10329497;28;20283;-64
2023/11/22 16:26:12;;;;;;;4.40;3.83;;;8.60;69.40;;;;;;10328663;28;20257;-64
2023/11/22 16:31:16;;;;;;;4.93;4.17;;;8.60;68.80;;;;;;10333810;28;20625;-64
2023/11/22 16:36:20;;;;;;;7.53;4.37;;;8.60;70.50;;;;;;10328386;28;20232;-64
2023/11/22 16:41:26;;;;;;;5.80;4.53;;;8.50;69.00;;;;;;10335315;28;20638;-67
2023/11/22 16:46:29;;;;;;;4.53;3.57;;;8.50;69.20;;;;;;10326263;28;20668;-66
2023/11/22 16:51:33;;;;;;;4.67;3.87;;;8.40;70.00;;;;;;10328164;28;20217;-66
2023/11/22 16:56:38;;;;;;;4.37;3.97;;;8.40;70.20;;;;;;10332008;28;20205;-67
2023/11/22 17:01:41;;;;;;;4.93;4.00;;;8.30;70.10;;;;;;10324012;28;20248;-66
2023/11/22 17:06:45;;;;;;;5.40;4.30;;;8.30;70.40;;;;;;10330145;28;20228;-66
2023/11/22 17:11:50;;;;;;;5.83;4.93;;;8.30;70.70;;;;;;10338330;28;20263;-66
2023/11/22 17:16:54;;;;;;;5.47;4.20;;;8.30;71.10;;;;;;10326094;28;20201;-66
2023/11/22 17:21:57;;;;;;;6.97;5.20;;;8.30;69.90;;;;;;10335448;28;20221;-68
2023/11/22 17:27:02;;;;;;;6.40;5.27;;;8.20;71.10;;;;;;10334820;28;20197;-67
2023/11/22 17:32:07;;;;;;;6.90;5.03;;;8.20;71.10;;;;;;10339537;28;20708;-66
2023/11/22 17:37:10;;;;;;;6.30;5.20;;;8.20;73.20;;;;;;10327350;28;20198;-66
2023/11/22 17:42:15;;;;;;;10.97;5.27;;;8.20;72.30;;;;;;10335650;28;20225;-67
2023/11/22 17:47:19;;;;;;;7.33;5.03;;;8.20;71.80;;;;;;10325279;28;20654;-67
2023/11/22 17:52:23;;;;;;;6.82;6.13;;;8.20;71.50;;;;;;10343897;28;20448;-64
2023/11/22 17:57:28;;;;;;;8.40;5.67;;;8.30;69.40;;;;;;10325606;28;20256;-63
2023/11/22 18:02:31;;;;;;;6.60;5.10;;;8.30;70.80;;;;;;10336243;28;20244;-65
2023/11/22 18:07:35;;;;;;;8.40;6.20;;;8.30;70.90;;;;;;10326062;28;20653;-64
2023/11/22 18:12:40;;;;;;;10.10;6.37;;;8.30;71.70;;;;;;10322421;28;20221;-65
2023/11/22 18:17:44;;;;;;;9.93;7.53;;;8.20;70.80;;;;;;10323619;28;20237;-66
2023/11/22 18:22:48;;;;;;;13.53;9.57;;;8.10;71.50;;;;;;10336782;28;20241;-66
2023/11/22 18:27:53;;;;;;;36.07;19.07;;;8.10;73.30;;;;;;10332493;28;20231;-65
2023/11/22 18:32:57;;;;;;;14.80;10.97;;;8.10;72.70;;;;;;10328878;28;20217;-64
2023/11/22 18:38:00;;;;;;;12.83;9.40;;;8.10;72.40;;;;;;10337057;28;20663;-66
2023/11/22 18:43:06;;;;;;;12.93;10.43;;;8.00;71.60;;;;;;10339227;28;20740;-65
2023/11/22 18:48:09;;;;;;;14.13;9.97;;;7.90;73.50;;;;;;10317549;28;20276;-65
2023/11/22 18:53:13;;;;;;;13.77;10.23;;;7.80;73.70;;;;;;10325202;28;20222;-66
2023/11/22 18:58:18;;;;;;;14.47;11.47;;;7.80;75.40;;;;;;10323717;28;20260;-64
2023/11/22 19:03:22;;;;;;;15.53;10.60;;;7.80;77.10;;;;;;10331446;28;20233;-66
2023/11/22 19:08:26;;;;;;;13.87;10.10;;;7.80;75.90;;;;;;10325691;28;20628;-67
2023/11/22 19:13:31;;;;;;;13.53;10.50;;;7.80;75.30;;;;;;10317020;28;20636;-67
2023/11/22 19:18:39;;;;;;;15.97;11.90;;;7.80;75.70;;;;;;10329579;28;20220;-67
2023/11/22 19:23:42;;;;;;;13.23;10.57;;;7.80;75.40;;;;;;10317337;28;20284;-68
2023/11/22 19:28:47;;;;;;;13.60;10.23;;;7.80;75.80;;;;;;10317725;28;20271;-67
2023/11/22 19:33:51;;;;;;;15.33;11.10;;;7.70;76.10;;;;;;10326757;28;20218;-66
2023/11/22 19:38:55;;;;;;;14.23;11.17;;;7.70;78.20;;;;;;10320162;28;20201;-66
2023/11/22 19:44:00;;;;;;;15.53;11.33;;;7.70;78.80;;;;;;10316050;28;20284;-66
2023/11/22 19:49:04;;;;;;;14.40;11.40;;;7.70;78.70;;;;;;10312944;28;20580;-65
2023/11/22 19:54:08;;;;;;;17.13;12.03;;;7.70;78.60;;;;;;10306262;28;20236;-65
2023/11/22 19:59:13;;;;;;;15.97;11.67;;;7.80;80.50;;;;;;10324832;28;20637;-64
2023/11/22 20:04:17;;;;;;;16.43;12.17;;;7.80;79.80;;;;;;10320729;28;20288;-65
2023/11/22 20:09:21;;;;;;;14.67;11.13;;;7.80;78.20;;;;;;10316782;28;20197;-67
2023/11/22 20:14:26;;;;;;;14.37;11.30;;;7.80;78.30;;;;;;10325059;28;20224;-64
2023/11/22 20:19:30;;;;;;;15.07;10.83;;;7.80;79.50;;;;;;10324205;28;20228;-68
2023/11/22 20:24:33;;;;;;;18.17;11.20;;;7.80;77.80;;;;;;10326996;28;20233;-67
2023/11/22 20:29:40;;;;;;;14.13;11.50;;;7.90;78.40;;;;;;10320952;28;20230;-67
2023/11/22 20:34:44;;;;;;;18.23;11.97;;;7.80;79.40;;;;;;10321580;28;20240;-67
2023/11/22 20:39:47;;;;;;;14.93;10.97;;;7.80;78.10;;;;;;10317405;28;20244;-65
2023/11/22 20:44:52;;;;;;;35.50;19.70;;;7.90;79.10;;;;;;10320829;28;20228;-65
2023/11/22 20:49:56;;;;;;;17.93;13.00;;;7.90;79.20;;;;;;10316693;28;20902;-65
2023/11/22 20:55:00;;;;;;;22.40;16.23;;;7.90;81.90;;;;;;10318693;28;20236;-65
2023/11/22 21:00:10;;;;;;;20.23;14.00;;;7.90;79.50;;;;;;10317533;28;20240;-65
2023/11/22 21:05:14;;;;;;;23.03;16.70;;;7.90;80.60;;;;;;10325944;28;20276;-65
2023/11/22 21:10:18;;;;;;;18.77;13.40;;;7.90;80.10;;;;;;10328760;28;20596;-64
2023/11/22 21:15:24;;;;;;;18.13;12.60;;;7.90;80.00;;;;;;10281440;28;20197;-64
2023/11/22 21:20:27;;;;;;;20.07;12.80;;;7.90;80.10;;;;;;10325487;28;20264;-66
2023/11/22 21:25:31;;;;;;;17.17;13.07;;;7.80;79.00;;;;;;10339104;28;20225;-65
2023/11/22 21:30:36;;;;;;;17.10;12.77;;;7.80;79.10;;;;;;10331588;28;20225;-66
2023/11/22 21:35:41;;;;;;;19.20;13.73;;;7.80;79.80;;;;;;10342044;28;20221;-64
2023/11/22 21:40:44;;;;;;;21.53;13.23;;;7.80;81.30;;;;;;10334777;28;20265;-64
2023/11/22 21:45:49;;;;;;;17.10;11.87;;;7.80;81.10;;;;;;10339364;28;20221;-65
2023/11/22 21:50:53;;;;;;;17.77;12.80;;;7.90;82.60;;;;;;10326314;28;20275;-64
2023/11/22 21:55:57;;;;;;;17.30;12.77;;;7.90;81.20;;;;;;10326466;28;20670;-64
2023/11/22 22:01:02;;;;;;;22.73;13.13;;;7.90;80.90;;;;;;10321506;28;20221;-66
2023/11/22 22:06:06;;;;;;;18.00;12.93;;;7.90;82.00;;;;;;10336249;28;20228;-66
2023/11/22 22:11:10;;;;;;;18.07;11.83;;;7.90;81.30;;;;;;10331196;28;20599;-65
2023/11/22 22:16:15;;;;;;;16.63;11.43;;;8.00;81.40;;;;;;10324719;28;20197;-64
2023/11/22 22:21:19;;;;;;;19.17;11.83;;;8.00;80.70;;;;;;10330302;28;20595;-65
2023/11/22 22:26:23;;;;;;;14.93;11.33;;;8.00;81.00;;;;;;10335422;28;20224;-65
2023/11/22 22:31:28;;;;;;;15.83;11.30;;;8.00;80.90;;;;;;10305923;28;20228;-64
2023/11/22 22:36:31;;;;;;;14.57;10.30;;;8.00;82.00;;;;;;10338179;28;20668;-64
2023/11/22 22:41:35;;;;;;;20.93;11.90;;;8.00;81.30;;;;;;10333793;28;20280;-64
2023/11/22 22:46:42;;;;;;;16.00;11.50;;;8.00;81.50;;;;;;10334236;28;20217;-64
2023/11/22 22:51:46;;;;;;;21.60;12.47;;;8.10;82.30;;;;;;10338439;28;20221;-64
2023/11/22 22:56:52;;;;;;;20.87;12.03;;;8.10;81.10;;;;;;10326328;28;20229;-65
2023/11/22 23:01:58;;;;;;;26.57;13.90;;;8.00;81.50;;;;;;10272356;28;20266;-64
2023/11/22 23:07:02;;;;;;;18.03;11.37;;;8.00;82.60;;;;;;10327566;28;20908;-64
2023/11/22 23:12:06;;;;;;;16.90;11.20;;;8.10;81.50;;;;;;10325756;28;20232;-64
2023/11/22 23:17:12;;;;;;;16.43;10.97;;;8.10;82.20;;;;;;10322759;28;20649;-65
2023/11/22 23:22:17;;;;;;;13.57;10.77;;;8.10;81.60;;;;;;10325147;28;20232;-66
2023/11/22 23:27:21;;;;;;;15.03;10.43;;;8.10;82.00;;;;;;10328669;28;20276;-65
2023/11/22 23:32:26;;;;;;;13.70;10.57;;;8.00;81.50;;;;;;10328236;28;20222;-66
2023/11/22 23:37:30;;;;;;;11.47;9.77;;;8.00;81.80;;;;;;10330698;28;20201;-65
2023/11/22 23:42:36;;;;;;;16.33;10.90;;;8.10;83.30;;;;;;10329489;28;20225;-67
2023/11/22 23:47:41;;;;;;;17.27;12.37;;;8.10;83.40;;;;;;10322897;28;20270;-67
2023/11/22 23:52:45;;;;;;;13.40;10.10;;;8.10;84.30;;;;;;10309419;28;20229;-67
2023/11/22 23:57:50;;;;;;;13.50;10.60;;;8.10;83.80;;;;;;10329581;28;20266;-66
